createdAt,value
2022-12-18T00:06:44.665Z,66
2022-12-18T00:34:58.522Z,61
2022-12-18T01:03:07.992Z,61
2022-12-18T01:31:20.324Z,65
2022-12-18T01:59:24.023Z,55
2022-12-18T02:27:40.529Z,59
2022-12-18T02:55:54.841Z,61
2022-12-18T03:24:04.944Z,55
2022-12-18T03:52:15.816Z,51
2022-12-18T04:20:19.569Z,55
2022-12-18T04:48:31.505Z,53
2022-12-18T05:16:43.292Z,46
2022-12-18T05:44:57.381Z,50
2022-12-18T06:12:59.496Z,49
2022-12-18T06:41:07.442Z,52
2022-12-18T07:09:10.674Z,47
2022-12-18T07:37:27.287Z,50
2022-12-18T08:05:45.872Z,48
2022-12-18T08:33:44.910Z,51
2022-12-18T09:01:56.619Z,55
2022-12-18T09:30:09.023Z,51
2022-12-18T09:58:37.541Z,55
2022-12-18T10:26:32.206Z,59
2022-12-18T11:23:34.037Z,54
2022-12-18T11:52:07.301Z,54
2022-12-18T12:20:51.889Z,59
2022-12-18T12:49:42.018Z,63
2022-12-18T13:18:23.256Z,74
2022-12-18T13:46:46.376Z,73
2022-12-18T14:15:28.173Z,73
2022-12-18T14:44:12.355Z,73
2022-12-18T15:12:55.001Z,79
2022-12-18T15:41:44.739Z,75
2022-12-18T16:10:33.555Z,80
2022-12-18T16:39:22.201Z,87
2022-12-18T17:07:44.822Z,87
2022-12-18T17:36:33.963Z,90
2022-12-18T18:05:21.265Z,86
2022-12-18T18:33:32.021Z,87
2022-12-18T19:01:47.149Z,89
2022-12-18T19:29:53.693Z,89
2022-12-18T19:58:04.170Z,90
2022-12-18T20:26:13.834Z,89
2022-12-18T20:54:21.315Z,93
2022-12-18T21:23:21.846Z,87
2022-12-18T21:51:39.536Z,88
2022-12-18T22:20:42.765Z,89
2022-12-18T22:49:13.706Z,87
2022-12-18T23:17:53.879Z,89
2022-12-18T23:46:20.631Z,90
